createdAt,value
2022-12-08T00:01:21.325Z,13.50
2022-12-08T00:03:49.261Z,14.98
2022-12-08T00:06:48.157Z,13.68
2022-12-08T00:09:23.871Z,12.70
2022-12-08T00:11:59.645Z,12.45
2022-12-08T00:14:54.671Z,10.98
2022-12-08T00:17:21.779Z,10.48
2022-12-08T00:19:50.729Z,14.60
2022-12-08T00:22:17.946Z,9.18
2022-12-08T00:24:46.632Z,12.77
2022-12-08T00:27:15.577Z,12.10
2022-12-08T00:29:46.343Z,11.75
2022-12-08T00:32:13.730Z,12.82
2022-12-08T00:34:40.908Z,14.05
2022-12-08T00:37:08.036Z,14.32
2022-12-08T00:39:35.249Z,10.75
2022-12-08T00:42:14.265Z,11.25
2022-12-08T00:44:43.062Z,14.02
2022-12-08T00:47:11.067Z,14.93
2022-12-08T00:49:39.211Z,12.95
2022-12-08T00:52:06.751Z,12.77
2022-12-08T00:54:33.890Z,15.18
2022-12-08T00:57:01.021Z,14.82
2022-12-08T00:59:28.219Z,13.05
2022-12-08T01:01:55.345Z,14.75
2022-12-08T01:04:22.508Z,15.40
2022-12-08T01:06:49.900Z,15.20
2022-12-08T01:09:18.363Z,15.63
2022-12-08T01:11:46.352Z,16.77
2022-12-08T01:14:14.592Z,16.15
2022-12-08T01:16:42.397Z,14.15
2022-12-08T01:19:14.598Z,9.85
2022-12-08T01:21:42.877Z,12.48
2022-12-08T01:24:14.952Z,10.60
2022-12-08T01:26:42.387Z,12.63
2022-12-08T01:29:11.042Z,10.90
2022-12-08T01:31:38.865Z,13.27
2022-12-08T01:34:07.064Z,14.95
2022-12-08T01:36:37.287Z,11.40
2022-12-08T01:39:10.746Z,10.65
2022-12-08T01:41:39.919Z,11.93
2022-12-08T01:44:08.438Z,10.25
2022-12-08T01:46:43.422Z,10.70
2022-12-08T01:49:21.042Z,13.02
2022-12-08T04:36:16.199Z,26.95
2022-12-08T04:38:43.288Z,21.83
2022-12-08T04:41:10.484Z,25.00
2022-12-08T04:43:37.888Z,21.23
2022-12-08T04:46:09.391Z,22.55
2022-12-08T04:48:40.176Z,20.58
2022-12-08T04:51:07.608Z,25.17
2022-12-08T04:53:34.745Z,20.95
2022-12-08T04:56:01.855Z,19.98
2022-12-08T04:58:29.006Z,19.30
2022-12-08T05:00:56.244Z,22.83
2022-12-08T05:03:28.487Z,18.10
2022-12-08T05:05:56.472Z,16.58
2022-12-08T05:08:23.758Z,19.65
2022-12-08T05:10:50.885Z,19.30
2022-12-08T05:13:18.026Z,18.20
2022-12-08T05:15:45.173Z,19.42
2022-12-08T05:18:12.303Z,20.10
2022-12-08T05:20:39.419Z,21.67
2022-12-08T05:23:06.551Z,17.40
2022-12-08T05:25:33.634Z,19.55
2022-12-08T05:28:24.635Z,20.05
2022-12-08T05:30:48.054Z,22.40
2022-12-08T05:33:15.342Z,19.83
2022-12-08T05:35:43.176Z,17.98
2022-12-08T05:38:11.732Z,22.00
2022-12-08T05:40:40.218Z,17.45
2022-12-08T05:43:07.628Z,18.92
2022-12-08T05:45:34.889Z,16.38
2022-12-08T05:48:02.081Z,19.00
2022-12-08T05:50:29.224Z,20.52
2022-12-08T05:52:57.527Z,18.02
2022-12-08T05:55:24.665Z,22.52
2022-12-08T05:57:51.785Z,20.60
2022-12-08T06:00:19.727Z,20.77
2022-12-08T06:02:47.058Z,27.55
2022-12-08T06:05:14.349Z,24.58
2022-12-08T06:07:41.502Z,30.27
2022-12-08T06:10:09.197Z,29.17
2022-12-08T06:12:36.426Z,29.15
2022-12-08T06:15:04.408Z,29.85
2022-12-08T06:17:31.586Z,28.63
2022-12-08T06:19:58.864Z,32.00
2022-12-08T06:22:26.066Z,27.60
2022-12-08T06:24:53.137Z,30.27
2022-12-08T06:27:20.390Z,25.00
2022-12-08T06:29:47.439Z,22.30
2022-12-08T06:32:14.592Z,23.38
2022-12-08T06:34:41.713Z,26.23
2022-12-08T06:37:08.853Z,23.30
2022-12-08T06:39:36.163Z,25.23
2022-12-08T06:42:22.086Z,23.27
2022-12-08T06:44:49.328Z,25.17
2022-12-08T06:47:16.509Z,23.17
2022-12-08T06:49:43.689Z,24.77
2022-12-08T06:52:10.775Z,25.20
2022-12-08T06:54:37.892Z,28.17
2022-12-08T06:57:04.998Z,25.35
2022-12-08T06:59:32.138Z,25.13
2022-12-08T07:01:59.378Z,26.85
2022-12-08T07:04:26.542Z,26.02
2022-12-08T07:06:53.653Z,25.95
2022-12-08T07:09:20.858Z,28.70
2022-12-08T07:11:48.085Z,25.05
2022-12-08T07:14:15.149Z,24.67
2022-12-08T07:16:42.301Z,25.58
2022-12-08T07:19:09.697Z,20.52
2022-12-08T07:21:37.096Z,21.48
2022-12-08T07:24:04.652Z,22.08
2022-12-08T07:26:31.864Z,23.48
2022-12-08T07:29:00.659Z,22.00
2022-12-08T07:31:28.706Z,25.17
2022-12-08T07:33:57.195Z,23.50
2022-12-08T07:36:27.176Z,24.60
2022-12-08T07:38:54.617Z,23.20
2022-12-08T07:41:24.435Z,28.13
2022-12-08T07:43:52.331Z,25.15
2022-12-08T07:46:22.364Z,22.45
2022-12-08T07:48:49.926Z,21.55
2022-12-08T07:51:17.241Z,21.67
2022-12-08T07:53:51.572Z,18.23
2022-12-08T07:56:21.298Z,22.63
2022-12-08T07:58:48.496Z,24.02
2022-12-08T08:01:30.515Z,26.00
2022-12-08T08:04:07.030Z,23.90
2022-12-08T08:06:35.185Z,24.50
2022-12-08T08:09:02.253Z,22.77
2022-12-08T08:11:29.472Z,20.63
2022-12-08T08:13:58.510Z,25.85
2022-12-08T08:16:25.801Z,23.17
2022-12-08T08:18:53.186Z,23.42
2022-12-08T08:21:45.707Z,19.90
2022-12-08T08:24:08.738Z,19.35
2022-12-08T08:26:37.170Z,17.05
2022-12-08T08:29:04.459Z,17.63
2022-12-08T08:31:31.661Z,17.23
2022-12-08T08:34:00.756Z,14.80
2022-12-08T08:36:27.841Z,19.40
2022-12-08T08:38:54.948Z,18.70
2022-12-08T08:41:22.027Z,16.48
2022-12-08T08:43:49.454Z,15.48
2022-12-08T08:46:16.786Z,13.70
2022-12-08T08:48:43.938Z,13.80
2022-12-08T08:51:13.414Z,13.73
2022-12-08T08:53:41.453Z,13.45
2022-12-08T08:56:15.075Z,12.18
2022-12-08T08:58:44.026Z,14.30
2022-12-08T09:01:30.849Z,15.05
2022-12-08T09:03:59.053Z,11.93
2022-12-08T09:06:30.597Z,14.73
2022-12-08T09:08:57.825Z,12.68
2022-12-08T09:11:25.018Z,13.35
2022-12-08T09:13:53.590Z,11.88
2022-12-08T09:16:21.698Z,13.13
2022-12-08T09:18:49.720Z,13.02
2022-12-08T09:21:23.157Z,11.90
2022-12-08T09:23:55.122Z,12.47
2022-12-08T09:26:23.398Z,13.20
2022-12-08T09:28:51.716Z,11.32
2022-12-08T09:31:20.753Z,10.63
2022-12-08T09:33:48.485Z,12.20
2022-12-08T09:36:16.014Z,12.75
2022-12-08T09:38:43.062Z,13.43
2022-12-08T09:41:50.298Z,10.15
2022-12-08T09:44:32.426Z,12.10
2022-12-08T09:47:01.853Z,11.90
2022-12-08T09:49:49.941Z,11.73
2022-12-08T09:52:44.620Z,11.43
2022-12-08T09:55:24.601Z,13.17
2022-12-08T09:58:03.329Z,11.27
2022-12-08T10:00:30.736Z,11.68
2022-12-08T10:02:57.874Z,12.18
2022-12-08T10:05:27.927Z,13.95
2022-12-08T10:08:18.293Z,10.60
2022-12-08T10:10:57.499Z,10.35
2022-12-08T10:13:38.479Z,12.45
2022-12-08T10:16:41.349Z,13.02
2022-12-08T10:19:22.783Z,13.20
2022-12-08T10:21:50.576Z,14.05
2022-12-08T10:24:35.153Z,11.93
2022-12-08T10:27:05.680Z,11.20
2022-12-08T10:29:33.917Z,10.88
2022-12-08T10:32:01.846Z,15.05
2022-12-08T10:34:29.033Z,10.98
2022-12-08T10:36:57.676Z,11.10
2022-12-08T10:39:38.712Z,13.80
2022-12-08T10:42:22.123Z,13.32
2022-12-08T10:44:58.310Z,12.52
2022-12-08T10:47:28.735Z,13.15
2022-12-08T10:50:20.047Z,13.52
2022-12-08T10:52:55.833Z,12.43
2022-12-08T10:55:23.303Z,14.98
2022-12-08T10:57:50.605Z,14.18
2022-12-08T11:00:24.545Z,14.15
2022-12-08T11:02:54.764Z,13.73
2022-12-08T11:05:24.020Z,13.85
2022-12-08T11:07:54.285Z,15.68
2022-12-08T11:10:35.646Z,32.90
2022-12-08T11:13:06.589Z,15.18
2022-12-08T11:15:40.121Z,13.15
2022-12-08T11:18:28.739Z,12.43
2022-12-08T11:21:16.863Z,11.48
2022-12-08T11:23:48.806Z,11.88
2022-12-08T11:26:35.449Z,12.90
2022-12-08T11:29:02.856Z,10.90
2022-12-08T11:31:38.671Z,11.88
2022-12-08T11:34:10.044Z,12.20
2022-12-08T11:36:39.370Z,11.95
2022-12-08T11:39:06.498Z,12.95
2022-12-08T11:41:42.954Z,12.68
2022-12-08T11:44:24.598Z,12.77
2022-12-08T11:47:06.479Z,17.35
2022-12-08T11:49:42.078Z,12.50
2022-12-08T11:52:22.124Z,13.15
2022-12-08T11:55:11.763Z,14.45
2022-12-08T11:57:38.872Z,15.18
2022-12-08T12:00:07.067Z,14.73
2022-12-08T12:02:44.640Z,14.20
2022-12-08T12:08:33.878Z,14.05
2022-12-08T12:11:37.021Z,14.05
2022-12-08T12:14:21.198Z,16.45
2022-12-08T12:17:07.652Z,15.85
2022-12-08T12:19:39.640Z,15.32
2022-12-08T12:22:20.283Z,16.65
2022-12-08T12:24:51.935Z,16.25
2022-12-08T12:27:37.692Z,14.30
2022-12-08T12:30:08.739Z,15.40
2022-12-08T12:32:51.914Z,15.48
2022-12-08T12:35:34.746Z,15.13
2022-12-08T12:38:28.020Z,16.58
2022-12-08T12:41:03.146Z,18.70
2022-12-08T12:43:33.751Z,15.50
2022-12-08T12:46:25.621Z,14.82
2022-12-08T12:48:53.189Z,19.92
2022-12-08T12:51:45.774Z,14.07
2022-12-08T12:54:22.812Z,15.77
2022-12-08T12:56:52.160Z,18.83
2022-12-08T12:59:50.213Z,15.93
2022-12-08T13:02:36.492Z,14.75
2022-12-08T13:05:33.355Z,14.35
2022-12-08T13:08:02.702Z,13.77
2022-12-08T13:10:31.264Z,16.17
2022-12-08T13:13:18.483Z,16.30
2022-12-08T13:16:10.001Z,15.90
2022-12-08T13:18:57.329Z,17.23
2022-12-08T13:21:31.598Z,13.90
2022-12-08T13:24:17.830Z,15.38
2022-12-08T13:27:04.383Z,17.05
2022-12-08T13:29:32.572Z,16.20
2022-12-08T13:32:01.444Z,17.10
2022-12-08T13:34:42.069Z,14.75
2022-12-08T13:37:11.937Z,17.65
2022-12-08T13:40:14.416Z,14.75
2022-12-08T13:43:22.051Z,19.30
2022-12-08T13:57:36.850Z,16.48
2022-12-08T14:00:15.701Z,16.20
2022-12-08T14:02:49.053Z,17.08
2022-12-08T14:05:40.575Z,20.48
2022-12-08T14:11:36.671Z,16.08
2022-12-08T14:14:27.297Z,17.45
2022-12-08T14:17:06.367Z,16.67
2022-12-08T14:19:35.319Z,17.90
2022-12-08T14:22:14.052Z,18.55
2022-12-08T14:24:48.254Z,18.55
2022-12-08T14:27:27.121Z,18.88
2022-12-08T14:30:22.246Z,17.00
2022-12-08T14:35:34.488Z,18.13
2022-12-08T14:38:22.157Z,22.02
2022-12-08T14:41:04.633Z,18.15
2022-12-08T14:43:33.038Z,19.40
2022-12-08T14:46:06.693Z,17.13
2022-12-08T14:48:33.799Z,19.40
2022-12-08T14:51:03.992Z,21.35
2022-12-08T14:53:43.801Z,23.33
2022-12-08T14:56:26.034Z,23.25
2022-12-08T14:59:07.416Z,24.35
2022-12-08T15:01:35.585Z,24.33
2022-12-08T15:04:24.548Z,25.23
2022-12-08T15:06:54.444Z,28.40
2022-12-08T15:09:41.177Z,24.85
2022-12-08T15:12:26.674Z,26.15
2022-12-08T15:15:16.313Z,24.92
2022-12-08T15:17:58.499Z,24.83
2022-12-08T15:20:28.759Z,28.58
2022-12-08T15:22:58.924Z,24.60
2022-12-08T15:25:26.135Z,25.48
2022-12-08T15:27:53.425Z,28.98
2022-12-08T15:30:20.895Z,25.92
2022-12-08T15:32:48.133Z,24.48
2022-12-08T15:35:16.283Z,24.92
2022-12-08T15:37:43.435Z,24.98
2022-12-08T15:40:23.144Z,25.17
2022-12-08T15:42:50.331Z,26.63
2022-12-08T15:45:17.912Z,24.08
2022-12-08T15:47:45.771Z,26.80
2022-12-08T15:50:18.420Z,29.95
2022-12-08T15:52:45.615Z,28.58
2022-12-08T15:55:14.504Z,32.70
2022-12-08T15:58:44.524Z,33.92
2022-12-08T16:00:53.107Z,34.30
2022-12-08T16:07:12.338Z,26.65
2022-12-08T16:09:27.759Z,20.40
2022-12-08T16:12:14.721Z,23.83
2022-12-08T16:17:36.852Z,25.70
2022-12-08T16:20:06.644Z,20.05
2022-12-08T16:25:22.727Z,22.52
2022-12-08T16:28:36.960Z,25.25
2022-12-08T16:30:40.638Z,20.88
2022-12-08T16:33:07.992Z,19.75
2022-12-08T16:35:35.198Z,21.92
2022-12-08T16:38:02.377Z,23.70
2022-12-08T16:40:29.781Z,21.95
2022-12-08T16:42:57.343Z,21.80
2022-12-08T16:45:27.304Z,24.45
2022-12-08T16:47:56.903Z,23.48
2022-12-08T16:50:30.125Z,22.67
2022-12-08T16:53:05.929Z,22.27
2022-12-08T16:55:34.156Z,23.15
2022-12-08T16:58:01.470Z,18.73
2022-12-08T17:00:30.391Z,22.02
2022-12-08T17:02:58.761Z,25.23
2022-12-08T17:05:27.023Z,26.98
2022-12-08T17:07:54.775Z,28.17
2022-12-08T17:10:25.302Z,28.83
2022-12-08T17:12:52.823Z,30.23
2022-12-08T17:15:23.931Z,33.92
2022-12-08T17:17:51.502Z,34.25
2022-12-08T17:20:27.232Z,38.90
2022-12-08T17:22:55.791Z,40.75
2022-12-08T17:25:24.073Z,32.60
2022-12-08T17:27:51.398Z,36.30
2022-12-08T17:30:19.141Z,36.40
2022-12-08T17:32:46.335Z,35.95
2022-12-08T17:35:14.453Z,39.85
2022-12-08T17:37:43.566Z,42.13
2022-12-08T17:40:11.409Z,42.20
2022-12-08T17:42:38.871Z,39.72
2022-12-08T17:45:07.932Z,46.17
2022-12-08T17:47:35.846Z,47.88
2022-12-08T17:50:03.304Z,55.05
2022-12-08T17:52:30.647Z,46.63
2022-12-08T17:54:57.769Z,48.65
2022-12-08T17:57:24.951Z,55.72
2022-12-08T17:59:52.089Z,46.88
2022-12-08T18:02:19.480Z,48.15
2022-12-08T18:04:46.683Z,49.35
2022-12-08T18:07:13.928Z,49.40
2022-12-08T18:09:42.204Z,44.85
2022-12-08T18:12:09.595Z,42.97
2022-12-08T18:14:36.825Z,44.90
2022-12-08T18:17:04.041Z,42.63
2022-12-08T18:19:31.445Z,47.63
2022-12-08T18:21:58.624Z,43.83
2022-12-08T18:24:25.764Z,40.03
2022-12-08T18:26:53.353Z,36.20
2022-12-08T18:29:21.965Z,42.78
2022-12-08T18:31:50.376Z,41.35
2022-12-08T18:34:19.169Z,44.05
2022-12-08T18:36:47.253Z,43.22
2022-12-08T18:39:26.761Z,37.22
2022-12-08T18:41:54.812Z,47.22
2022-12-08T18:44:23.918Z,47.75
2022-12-08T18:47:02.493Z,49.03
2022-12-08T18:49:33.252Z,50.88
2022-12-08T18:52:00.344Z,56.50
2022-12-08T18:54:50.005Z,49.45
2022-12-08T18:57:15.934Z,55.70
2022-12-08T18:59:43.199Z,53.97
2022-12-08T19:02:14.137Z,56.25
2022-12-08T19:04:43.946Z,47.75
2022-12-08T19:07:12.436Z,51.08
2022-12-08T19:09:41.141Z,51.05
2022-12-08T19:12:08.451Z,47.25
2022-12-08T19:14:35.643Z,45.90
2022-12-08T19:17:02.821Z,47.13
2022-12-08T19:19:30.073Z,48.58
2022-12-08T19:21:57.537Z,48.85
2022-12-08T19:24:25.402Z,46.35
2022-12-08T19:26:53.037Z,48.47
2022-12-08T19:29:20.272Z,51.30
2022-12-08T19:31:47.502Z,51.83
2022-12-08T19:34:15.207Z,55.13
2022-12-08T19:36:43.154Z,51.60
2022-12-08T19:39:42.041Z,43.78
2022-12-08T19:42:35.443Z,39.33
2022-12-08T19:45:11.997Z,46.00
2022-12-08T19:47:40.356Z,40.35
2022-12-08T19:50:28.488Z,43.22
2022-12-08T19:52:56.355Z,40.63
2022-12-08T19:55:24.186Z,45.08
2022-12-08T19:57:52.137Z,47.70
2022-12-08T20:00:20.974Z,46.10
2022-12-08T20:02:48.524Z,45.30
2022-12-08T20:05:16.253Z,44.92
2022-12-08T20:07:43.585Z,47.55
2022-12-08T20:10:21.285Z,47.10
2022-12-08T20:12:48.509Z,45.03
2022-12-08T20:15:15.703Z,37.47
2022-12-08T20:17:43.404Z,41.55
2022-12-08T20:20:12.752Z,42.45
2022-12-08T20:22:40.118Z,44.97
2022-12-08T20:25:08.245Z,46.92
2022-12-08T20:27:39.698Z,44.08
2022-12-08T20:30:11.809Z,41.08
2022-12-08T20:32:42.306Z,40.40
2022-12-08T20:35:09.645Z,43.88
2022-12-08T20:37:36.935Z,40.22
2022-12-08T20:40:06.207Z,39.45
2022-12-08T20:42:33.411Z,40.33
2022-12-08T20:45:00.729Z,38.53
2022-12-08T20:47:28.880Z,41.05
2022-12-08T20:49:56.296Z,41.33
2022-12-08T20:52:25.909Z,46.67
2022-12-08T20:54:53.253Z,48.40
2022-12-08T20:57:20.472Z,44.10
2022-12-08T20:59:47.772Z,43.97
2022-12-08T21:02:14.991Z,43.80
2022-12-08T21:04:42.371Z,37.50
2022-12-08T21:07:09.572Z,37.08
2022-12-08T21:09:37.306Z,40.33
2022-12-08T21:12:04.700Z,36.88
2022-12-08T21:14:31.852Z,41.08
2022-12-08T21:16:59.013Z,37.58
2022-12-08T21:19:26.879Z,34.20
2022-12-08T21:21:54.131Z,33.40
2022-12-08T21:24:26.407Z,35.28
2022-12-08T21:26:56.238Z,36.40
2022-12-08T21:29:23.424Z,48.97
2022-12-08T21:31:51.494Z,46.55
2022-12-08T21:34:18.879Z,42.78
2022-12-08T21:36:46.342Z,33.72
2022-12-08T21:39:13.479Z,39.45
2022-12-08T21:41:59.215Z,36.10
2022-12-08T21:44:26.773Z,38.28
2022-12-08T21:46:54.014Z,36.53
2022-12-08T21:49:21.398Z,35.45
2022-12-08T21:51:48.761Z,33.65
2022-12-08T21:54:19.033Z,35.55
2022-12-08T21:56:49.403Z,35.22
2022-12-08T21:59:18.152Z,38.67
2022-12-08T22:01:45.492Z,36.33
2022-12-08T22:04:17.621Z,45.10
2022-12-08T22:06:45.240Z,41.10
2022-12-08T22:09:13.690Z,37.35
2022-12-08T22:11:41.737Z,38.22
2022-12-08T22:14:14.141Z,38.13
2022-12-08T22:16:43.122Z,39.03
2022-12-08T22:19:10.780Z,38.92
2022-12-08T22:21:38.508Z,41.15
2022-12-08T22:24:06.405Z,41.58
2022-12-08T22:26:34.513Z,40.60
2022-12-08T22:29:04.172Z,42.10
2022-12-08T22:31:31.585Z,41.78
2022-12-08T22:33:59.531Z,41.42
2022-12-08T22:36:28.367Z,43.88
2022-12-08T22:38:55.830Z,44.38
2022-12-08T22:41:23.339Z,38.42
2022-12-08T22:43:50.962Z,38.13
2022-12-08T22:46:26.576Z,40.28
2022-12-08T22:48:55.252Z,37.72
2022-12-08T22:51:23.888Z,36.45
2022-12-08T22:53:51.349Z,34.50
2022-12-08T22:56:19.372Z,39.55
2022-12-08T22:58:46.989Z,37.63
2022-12-08T23:01:33.259Z,47.85
2022-12-08T23:04:02.078Z,56.40
2022-12-08T23:06:30.997Z,54.10
2022-12-08T23:08:59.425Z,57.88
2022-12-08T23:11:30.667Z,43.80
2022-12-08T23:14:01.146Z,40.30
2022-12-08T23:16:28.918Z,44.58
2022-12-08T23:18:56.575Z,40.92
2022-12-08T23:21:23.943Z,38.25
2022-12-08T23:23:51.078Z,37.60
2022-12-08T23:26:21.979Z,39.53
2022-12-08T23:29:44.987Z,38.83
2022-12-08T23:32:31.483Z,42.00
2022-12-08T23:34:59.377Z,36.03
2022-12-08T23:37:27.886Z,39.38
2022-12-08T23:39:55.403Z,37.88
2022-12-08T23:42:23.109Z,37.83
2022-12-08T23:44:50.879Z,43.15
2022-12-08T23:47:18.564Z,50.15
2022-12-08T23:49:46.226Z,52.28
2022-12-08T23:52:14.371Z,47.35
2022-12-08T23:54:41.846Z,45.25
2022-12-08T23:57:09.114Z,47.63
2022-12-08T23:59:36.971Z,42.55
